createdAt,value
2017-05-05T00:00:53.708Z,28.6
2017-05-05T00:01:53.671Z,28.6
2017-05-05T00:02:55.187Z,28.6
2017-05-05T00:03:53.944Z,28.6
2017-05-05T00:04:54.031Z,28.6
2017-05-05T00:05:55.166Z,28.6
2017-05-05T00:06:55.125Z,28.6
2017-05-05T00:07:55.185Z,28.6
2017-05-05T00:08:54.501Z,28.6
2017-05-05T00:09:54.171Z,28.6
2017-05-05T00:10:55.387Z,28.6
2017-05-05T00:11:54.317Z,28.6
2017-05-05T00:12:55.414Z,28.6
2017-05-05T00:13:54.366Z,28.6
2017-05-05T00:14:54.796Z,28.6
2017-05-05T00:15:55.556Z,28.6
2017-05-05T00:16:55.577Z,28.6
2017-05-05T00:17:54.558Z,28.6
2017-05-05T00:18:55.749Z,28.6
2017-05-05T00:19:55.758Z,28.6
2017-05-05T00:20:54.984Z,28.6
2017-05-05T00:21:54.809Z,28.6
2017-05-05T00:22:54.902Z,28.6
2017-05-05T00:23:55.060Z,28.6
2017-05-05T00:24:56.244Z,28.6
2017-05-05T00:25:56.228Z,28.6
2017-05-05T00:26:56.646Z,28.6
2017-05-05T00:27:55.366Z,28.6
2017-05-05T00:28:56.426Z,28.6
2017-05-05T00:29:55.394Z,28.6
2017-05-05T00:30:55.420Z,28.6
2017-05-05T00:31:56.598Z,28.6
2017-05-05T00:32:56.981Z,28.6
2017-05-05T00:33:56.705Z,28.6
2017-05-05T00:34:55.635Z,28.6
2017-05-05T00:35:55.618Z,28.6
2017-05-05T00:36:56.795Z,28.6
2017-05-05T00:37:55.853Z,28.6
2017-05-05T00:38:57.290Z,28.6
2017-05-05T00:39:57.045Z,28.6
2017-05-05T00:40:55.952Z,28.6
2017-05-05T00:41:57.145Z,28.6
2017-05-05T00:42:56.164Z,28.6
2017-05-05T00:43:57.151Z,28.6
2017-05-05T00:44:57.446Z,28.6
2017-05-05T00:45:57.196Z,28.6
2017-05-05T00:46:57.355Z,28.6
2017-05-05T00:47:57.372Z,28.6
2017-05-05T00:48:57.411Z,28.6
2017-05-05T00:49:56.476Z,28.6
2017-05-05T00:50:56.750Z,28.6
2017-05-05T00:51:57.572Z,28.6
2017-05-05T00:52:57.515Z,28.6
2017-05-05T00:53:56.556Z,28.6
2017-05-05T00:54:57.544Z,28.6
2017-05-05T00:55:57.710Z,28.6
2017-05-05T00:56:56.780Z,28.6
2017-05-05T00:57:57.654Z,28.6
2017-05-05T00:58:57.680Z,28.6
2017-05-05T00:59:56.739Z,28.6
2017-05-05T01:00:57.797Z,28.6
2017-05-05T01:01:58.464Z,28.6
2017-05-05T01:02:58.190Z,28.6
2017-05-05T01:03:57.897Z,28.6
2017-05-05T01:04:56.967Z,28.6
2017-05-05T01:05:58.005Z,28.6
2017-05-05T01:06:58.099Z,28.6
2017-05-05T01:07:58.131Z,28.6
2017-05-05T01:08:58.416Z,28.6
2017-05-05T01:09:58.270Z,28.6
2017-05-05T01:10:58.264Z,28.6
2017-05-05T01:11:57.233Z,28.6
2017-05-05T01:12:58.457Z,28.5
2017-05-05T01:13:57.329Z,28.6
2017-05-05T01:14:59.115Z,28.5
2017-05-05T01:15:58.595Z,28.6
2017-05-05T01:16:58.687Z,28.5
2017-05-05T01:17:58.697Z,28.5
2017-05-05T01:18:57.593Z,28.6
2017-05-05T01:19:58.841Z,28.6
2017-05-05T01:20:59.089Z,28.6
2017-05-05T01:21:57.805Z,28.5
2017-05-05T01:22:59.039Z,28.6
2017-05-05T01:23:58.090Z,28.5
2017-05-05T01:24:59.197Z,28.6
2017-05-05T01:25:58.237Z,28.6
2017-05-05T01:26:59.565Z,28.6
2017-05-05T01:27:59.400Z,28.6
2017-05-05T01:28:59.392Z,28.6
2017-05-05T01:29:59.469Z,28.5
2017-05-05T01:30:59.422Z,28.5
2017-05-05T01:31:59.537Z,28.5
2017-05-05T01:32:59.853Z,28.5
2017-05-05T01:33:58.570Z,28.5
2017-05-05T01:34:59.672Z,28.5
2017-05-05T01:35:59.627Z,28.5
2017-05-05T01:36:58.652Z,28.6
2017-05-05T01:37:59.841Z,28.5
2017-05-05T01:39:00.226Z,28.5
2017-05-05T01:39:59.581Z,28.6
2017-05-05T01:40:59.900Z,28.6
2017-05-05T01:41:58.848Z,28.5
2017-05-05T01:42:58.886Z,28.6
2017-05-05T01:43:59.015Z,28.6
2017-05-05T01:45:00.402Z,28.5
2017-05-05T01:45:59.028Z,28.5
2017-05-05T01:46:59.002Z,28.5
2017-05-05T01:47:59.113Z,28.5
2017-05-05T01:48:59.118Z,28.5
2017-05-05T01:50:00.176Z,28.5
2017-05-05T01:50:59.540Z,28.5
2017-05-05T01:51:59.220Z,28.5
2017-05-05T01:53:00.012Z,28.5
2017-05-05T01:54:00.486Z,28.5
2017-05-05T01:55:00.526Z,28.5
2017-05-05T01:55:59.551Z,28.5
2017-05-05T01:57:00.883Z,28.5
2017-05-05T01:57:59.634Z,28.5
2017-05-05T01:58:59.648Z,28.5
2017-05-05T02:00:00.749Z,28.5
2017-05-05T02:01:00.872Z,28.5
2017-05-05T02:02:00.901Z,28.6
2017-05-05T02:03:01.228Z,28.6
2017-05-05T02:04:00.940Z,28.5
2017-05-05T02:05:00.008Z,28.5
2017-05-05T02:06:00.012Z,28.6
2017-05-05T02:07:01.180Z,28.6
2017-05-05T02:08:00.192Z,28.6
2017-05-05T02:09:01.545Z,28.5
2017-05-05T02:10:01.437Z,28.6
2017-05-05T02:11:00.291Z,28.6
2017-05-05T02:12:00.394Z,28.6
2017-05-05T02:13:01.493Z,28.6
2017-05-05T02:14:01.581Z,28.6
2017-05-05T02:15:00.883Z,28.6
2017-05-05T02:16:00.584Z,28.6
2017-05-05T02:17:01.737Z,28.6
2017-05-05T02:18:01.767Z,28.5
2017-05-05T02:19:01.896Z,28.5
2017-05-05T02:20:01.891Z,28.5
2017-05-05T02:21:01.139Z,28.5
2017-05-05T02:22:01.930Z,28.5
2017-05-05T02:23:00.957Z,28.5
2017-05-05T02:24:02.029Z,28.5
2017-05-05T02:25:00.984Z,28.5
2017-05-05T02:26:00.961Z,28.5
2017-05-05T02:27:01.405Z,28.5
2017-05-05T02:28:01.186Z,28.5
2017-05-05T02:29:01.089Z,28.5
2017-05-05T02:30:02.314Z,28.5
2017-05-05T02:31:01.235Z,28.5
2017-05-05T02:32:01.408Z,28.5
2017-05-05T02:33:01.678Z,28.5
2017-05-05T02:34:02.555Z,28.5
2017-05-05T02:35:02.683Z,28.5
2017-05-05T02:36:01.716Z,28.5
2017-05-05T02:37:02.749Z,28.5
2017-05-05T02:38:01.797Z,28.5
2017-05-05T02:39:03.097Z,28.5
2017-05-05T02:40:01.820Z,28.5
2017-05-05T02:41:01.836Z,28.5
2017-05-05T02:42:01.744Z,28.5
2017-05-05T02:43:01.829Z,28.5
2017-05-05T02:44:02.987Z,28.5
2017-05-05T02:45:03.350Z,28.5
2017-05-05T02:46:01.982Z,28.5
2017-05-05T02:47:02.038Z,28.5
2017-05-05T02:48:02.165Z,28.5
2017-05-05T02:49:03.338Z,28.5
2017-05-05T02:50:03.273Z,28.5
2017-05-05T02:51:03.678Z,28.5
2017-05-05T02:52:02.374Z,28.5
2017-05-05T02:53:03.466Z,28.5
2017-05-05T02:54:02.307Z,28.5
2017-05-05T02:55:02.412Z,28.5
2017-05-05T02:56:03.466Z,28.5
2017-05-05T02:57:02.683Z,28.5
2017-05-05T02:58:03.547Z,28.5
2017-05-05T02:59:02.500Z,28.5
2017-05-05T03:00:03.660Z,28.5
2017-05-05T03:01:04.478Z,28.5
2017-05-05T03:02:03.852Z,28.5
2017-05-05T03:03:04.117Z,28.5
2017-05-05T03:04:03.938Z,28.5
2017-05-05T03:05:02.793Z,28.5
2017-05-05T03:06:02.898Z,28.5
2017-05-05T03:07:02.827Z,28.5
2017-05-05T03:08:02.952Z,28.5
2017-05-05T03:09:03.213Z,28.5
2017-05-05T03:10:04.090Z,28.5
2017-05-05T03:11:04.075Z,28.5
2017-05-05T03:12:04.192Z,28.5
2017-05-05T03:13:03.143Z,28.5
2017-05-05T03:14:04.298Z,28.5
2017-05-05T03:15:04.638Z,28.5
2017-05-05T03:16:03.272Z,28.5
2017-05-05T03:17:04.427Z,28.5
2017-05-05T03:18:03.382Z,28.5
2017-05-05T03:19:04.539Z,28.5
2017-05-05T03:20:04.548Z,28.5
2017-05-05T03:21:03.819Z,28.5
2017-05-05T03:22:03.678Z,28.5
2017-05-05T03:23:04.637Z,28.5
2017-05-05T03:24:03.662Z,28.5
2017-05-05T03:25:04.827Z,28.5
2017-05-05T03:26:04.917Z,28.5
2017-05-05T03:27:05.178Z,28.5
2017-05-05T03:28:05.049Z,28.5
2017-05-05T03:29:05.107Z,28.5
2017-05-05T03:30:05.024Z,28.5
2017-05-05T03:31:03.985Z,28.5
2017-05-05T03:32:05.222Z,28.5
2017-05-05T03:33:05.458Z,28.6
2017-05-05T03:34:05.154Z,28.6
2017-05-05T03:35:05.169Z,28.5
2017-05-05T03:36:04.112Z,28.5
2017-05-05T03:37:04.305Z,28.6
2017-05-05T03:38:05.332Z,28.5
2017-05-05T03:39:05.660Z,28.6
2017-05-05T03:40:04.288Z,28.6
2017-05-05T03:41:05.352Z,28.6
2017-05-05T03:42:04.480Z,28.6
2017-05-05T03:43:04.404Z,28.6
2017-05-05T03:44:04.434Z,28.6
2017-05-05T03:45:05.846Z,28.6
2017-05-05T03:46:05.509Z,28.6
2017-05-05T03:47:05.657Z,28.6
2017-05-05T03:48:04.656Z,28.6
2017-05-05T03:49:04.751Z,28.6
2017-05-05T03:50:04.654Z,28.5
2017-05-05T03:51:05.137Z,28.6
2017-05-05T03:52:05.964Z,28.6
2017-05-05T03:53:06.022Z,28.5
2017-05-05T03:54:04.982Z,28.6
2017-05-05T03:55:06.110Z,28.5
2017-05-05T03:56:05.150Z,28.5
2017-05-05T03:57:05.390Z,28.5
2017-05-05T03:58:06.309Z,28.5
2017-05-05T03:59:05.287Z,28.5
2017-05-05T04:00:05.313Z,28.5
2017-05-05T04:01:06.438Z,28.5
2017-05-05T04:02:05.531Z,28.6
2017-05-05T04:03:06.950Z,28.5
2017-05-05T04:04:06.701Z,28.5
2017-05-05T04:05:06.713Z,28.5
2017-05-05T04:06:05.725Z,28.5
2017-05-05T04:07:06.902Z,28.5
2017-05-05T04:08:08.153Z,28.5
2017-05-05T04:09:06.140Z,28.5
2017-05-05T04:10:06.845Z,28.5
2017-05-05T04:11:05.831Z,28.5
2017-05-05T04:12:06.995Z,28.5
2017-05-05T04:13:05.946Z,28.5
2017-05-05T04:14:05.957Z,28.5
2017-05-05T04:15:06.956Z,28.5
2017-05-05T04:16:06.065Z,28.5
2017-05-05T04:17:07.126Z,28.5
2017-05-05T04:18:07.221Z,28.5
2017-05-05T04:19:06.228Z,28.5
2017-05-05T04:20:07.294Z,28.5
2017-05-05T04:21:06.499Z,28.5
2017-05-05T04:22:06.288Z,28.5
2017-05-05T04:23:07.463Z,28.5
2017-05-05T04:24:06.366Z,28.5
2017-05-05T04:25:06.589Z,28.5
2017-05-05T04:26:07.661Z,28.5
2017-05-05T04:27:08.032Z,28.5
2017-05-05T04:28:07.714Z,28.5
2017-05-05T04:29:08.355Z,28.5
2017-05-05T04:30:06.698Z,28.5
2017-05-05T04:31:06.753Z,28.5
2017-05-05T04:32:06.885Z,28.5
2017-05-05T04:33:07.327Z,28.5
2017-05-05T04:34:07.521Z,28.5
2017-05-05T04:35:07.114Z,28.7
2017-05-05T04:36:08.885Z,28.8
2017-05-05T04:37:08.098Z,28.9
2017-05-05T04:38:08.121Z,29.1
2017-05-05T04:39:08.502Z,29.2
2017-05-05T04:40:08.572Z,29.3
2017-05-05T04:41:07.280Z,29.5
2017-05-05T04:42:08.004Z,29.7
2017-05-05T04:43:07.327Z,29.9
2017-05-05T04:44:08.500Z,30.1
2017-05-05T04:45:09.554Z,30.3
2017-05-05T04:46:08.728Z,30.5
2017-05-05T04:47:08.784Z,30.6
2017-05-05T04:48:08.861Z,30.7
2017-05-05T04:49:07.898Z,30.8
2017-05-05T04:50:09.015Z,30.9
2017-05-05T04:51:09.391Z,31
2017-05-05T04:52:08.057Z,31
2017-05-05T04:53:09.096Z,31.1
2017-05-05T04:54:08.124Z,31.1
2017-05-05T04:55:08.017Z,31.2
2017-05-05T04:56:09.258Z,31.3
2017-05-05T04:57:09.454Z,31.3
2017-05-05T04:58:08.137Z,31.4
2017-05-05T04:59:09.321Z,31.4
2017-05-05T05:00:08.241Z,31.4
2017-05-05T05:01:08.355Z,31.4
2017-05-05T05:02:08.465Z,31.4
2017-05-05T05:03:09.325Z,31.4
2017-05-05T05:04:09.987Z,31.5
2017-05-05T05:05:09.514Z,31.6
2017-05-05T05:06:09.600Z,31.8
2017-05-05T05:07:08.651Z,31.8
2017-05-05T05:08:09.686Z,31.7
2017-05-05T05:09:10.013Z,31.6
2017-05-05T05:10:08.652Z,31.5
2017-05-05T05:11:08.750Z,31.4
2017-05-05T05:12:11.844Z,31.4
2017-05-05T05:13:09.943Z,31.3
2017-05-05T05:14:09.888Z,31.3
2017-05-05T05:15:10.820Z,31.3
2017-05-05T05:16:09.927Z,31.2
2017-05-05T05:17:08.927Z,31.2
2017-05-05T05:18:10.823Z,31.1
2017-05-05T05:19:08.981Z,31.1
2017-05-05T05:20:11.345Z,31.1
2017-05-05T05:21:09.902Z,31.1
2017-05-05T05:22:10.226Z,31
2017-05-05T05:23:10.262Z,30.9
2017-05-05T05:24:10.355Z,30.9
2017-05-05T05:25:10.977Z,30.9
2017-05-05T05:26:10.323Z,30.9
2017-05-05T05:27:10.712Z,31
2017-05-05T05:28:10.430Z,31
2017-05-05T05:29:10.009Z,31
2017-05-05T05:30:11.200Z,31.1
2017-05-05T05:31:09.520Z,31.1
2017-05-05T05:32:09.588Z,31.2
2017-05-05T05:33:10.067Z,31.2
2017-05-05T05:34:09.800Z,31.2
2017-05-05T05:35:09.887Z,31.3
2017-05-05T05:36:09.913Z,31.4
2017-05-05T05:37:09.861Z,31.4
2017-05-05T05:38:09.971Z,31.4
2017-05-05T05:39:11.419Z,31.5
2017-05-05T05:40:10.048Z,31.4
2017-05-05T05:41:11.356Z,31.5
2017-05-05T05:42:11.167Z,31.5
2017-05-05T05:43:11.255Z,31.5
2017-05-05T05:44:11.848Z,31.5
2017-05-05T05:45:10.691Z,31.5
2017-05-05T05:46:12.027Z,31.5
2017-05-05T05:47:11.136Z,31.5
2017-05-05T05:48:11.533Z,31.5
2017-05-05T05:49:10.525Z,31.5
2017-05-05T05:50:11.656Z,31.6
2017-05-05T05:51:10.918Z,31.6
2017-05-05T05:52:10.534Z,31.6
2017-05-05T05:53:13.696Z,31.6
2017-05-05T05:54:11.795Z,31.6
2017-05-05T05:55:11.832Z,31.6
2017-05-05T05:56:12.064Z,31.6
2017-05-05T05:57:12.246Z,31.5
2017-05-05T05:58:11.015Z,31.3
2017-05-05T05:59:12.714Z,31.1
2017-05-05T06:00:13.792Z,30.9
2017-05-05T06:01:11.240Z,30.8
2017-05-05T06:02:11.247Z,30.7
2017-05-05T06:03:12.622Z,30.7
2017-05-05T06:04:11.915Z,30.6
2017-05-05T06:05:13.001Z,30.5
2017-05-05T06:06:12.473Z,30.5
2017-05-05T06:07:11.473Z,30.4
2017-05-05T06:08:12.108Z,30.3
2017-05-05T06:09:12.946Z,30.2
2017-05-05T06:10:12.253Z,30.2
2017-05-05T06:11:11.530Z,30.1
2017-05-05T06:12:12.780Z,30.1
2017-05-05T06:13:12.828Z,30.1
2017-05-05T06:14:12.885Z,30.1
2017-05-05T06:15:14.924Z,30
2017-05-05T06:16:13.048Z,30
2017-05-05T06:17:12.817Z,30
2017-05-05T06:18:12.127Z,30
2017-05-05T06:19:13.187Z,30
2017-05-05T06:20:13.304Z,29.9
2017-05-05T06:21:15.615Z,29.9
2017-05-05T06:22:14.217Z,29.9
2017-05-05T06:23:14.749Z,29.8
2017-05-05T06:24:14.886Z,29.8
2017-05-05T06:25:12.515Z,29.8
2017-05-05T06:26:12.714Z,29.7
2017-05-05T06:27:15.165Z,29.7
2017-05-05T06:28:13.866Z,29.7
2017-05-05T06:29:14.533Z,29.6
2017-05-05T06:30:13.904Z,29.6
2017-05-05T06:31:12.851Z,29.6
2017-05-05T06:32:16.625Z,29.6
2017-05-05T06:33:14.428Z,29.6
2017-05-05T06:34:14.332Z,29.6
2017-05-05T06:35:14.236Z,29.6
2017-05-05T06:36:14.064Z,29.6
2017-05-05T06:37:15.081Z,29.6
2017-05-05T06:38:15.852Z,29.6
2017-05-05T06:39:17.188Z,29.6
2017-05-05T06:40:15.270Z,29.6
2017-05-05T06:41:15.831Z,29.6
2017-05-05T06:42:15.055Z,29.6
2017-05-05T06:43:15.213Z,29.6
2017-05-05T06:44:15.456Z,29.5
2017-05-05T06:45:16.098Z,29.5
2017-05-05T06:46:14.833Z,29.5
2017-05-05T06:47:16.343Z,29.5
2017-05-05T06:48:15.047Z,29.5
2017-05-05T06:49:16.103Z,29.4
2017-05-05T06:50:15.100Z,29.4
2017-05-05T06:51:15.886Z,29.3
2017-05-05T06:52:14.138Z,29.3
2017-05-05T06:53:14.145Z,29.3
2017-05-05T06:54:16.993Z,29.2
2017-05-05T06:55:17.772Z,29.2
2017-05-05T06:56:16.295Z,29.2
2017-05-05T06:57:15.620Z,29.2
2017-05-05T06:58:15.912Z,29.2
2017-05-05T06:59:15.502Z,29.2
2017-05-05T07:00:16.641Z,29.2
2017-05-05T07:01:20.674Z,29.1
2017-05-05T07:02:15.579Z,29.1
2017-05-05T07:03:14.906Z,29.1
2017-05-05T07:04:15.970Z,29
2017-05-05T07:05:15.309Z,29
2017-05-05T07:06:18.684Z,29
2017-05-05T07:07:14.789Z,28.9
2017-05-05T07:08:15.439Z,28.9
2017-05-05T07:09:17.861Z,28.9
2017-05-05T07:10:15.947Z,28.8
2017-05-05T07:11:18.655Z,28.7
2017-05-05T07:12:23.486Z,28.7
2017-05-05T07:13:16.246Z,28.6
2017-05-05T07:14:20.670Z,28.6
2017-05-05T07:15:17.150Z,28.6
2017-05-05T07:16:17.844Z,28.7
2017-05-05T07:17:18.915Z,28.7
2017-05-05T07:18:20.419Z,28.7
2017-05-05T07:19:15.353Z,28.7
2017-05-05T07:20:16.962Z,28.7
2017-05-05T07:21:17.970Z,28.8
2017-05-05T07:22:15.593Z,28.8
2017-05-05T07:23:19.866Z,28.8
2017-05-05T07:24:19.221Z,28.8
2017-05-05T07:25:16.163Z,28.8
2017-05-05T07:26:18.946Z,28.8
2017-05-05T07:27:17.818Z,28.8
2017-05-05T07:28:16.961Z,28.8
2017-05-05T07:29:17.139Z,28.8
2017-05-05T07:30:18.613Z,28.7
2017-05-05T07:31:17.794Z,28.7
2017-05-05T07:32:21.065Z,28.7
2017-05-05T07:33:17.615Z,28.7
2017-05-05T07:34:19.537Z,28.6
2017-05-05T07:35:19.170Z,28.7
2017-05-05T07:36:18.402Z,28.8
2017-05-05T07:37:18.531Z,28.8
2017-05-05T07:38:21.404Z,28.8
2017-05-05T07:39:18.747Z,28.9
2017-05-05T07:40:18.111Z,28.9
2017-05-05T07:41:17.923Z,28.9
2017-05-05T07:42:18.241Z,29
2017-05-05T07:43:17.750Z,29
2017-05-05T07:44:17.379Z,29.1
2017-05-05T07:45:18.500Z,29.1
2017-05-05T07:46:17.839Z,29.1
2017-05-05T07:47:17.877Z,29.2
2017-05-05T07:48:17.848Z,29.2
2017-05-05T07:49:19.489Z,29.2
2017-05-05T07:50:17.686Z,29.2
2017-05-05T07:51:18.395Z,29.3
2017-05-05T07:52:17.074Z,29.3
2017-05-05T07:53:18.819Z,29.3
2017-05-05T07:54:19.802Z,29.3
2017-05-05T07:55:18.608Z,29.4
2017-05-05T07:56:19.329Z,29.4
2017-05-05T07:57:18.975Z,29.4
2017-05-05T07:58:19.019Z,29.4
2017-05-05T07:59:18.668Z,29.4
2017-05-05T08:00:19.365Z,29.4
2017-05-05T08:01:19.394Z,29.4
2017-05-05T08:02:19.104Z,29.4
2017-05-05T08:03:19.692Z,29.4
2017-05-05T08:04:18.248Z,29.4
2017-05-05T08:05:19.275Z,29.5
2017-05-05T08:06:20.385Z,29.5
2017-05-05T08:07:18.823Z,29.5
2017-05-05T08:08:20.949Z,29.4
2017-05-05T08:09:19.780Z,29.5
2017-05-05T08:10:18.550Z,29.6
2017-05-05T08:11:19.500Z,29.7
2017-05-05T08:12:18.644Z,29.8
2017-05-05T08:13:20.316Z,29.9
2017-05-05T08:14:18.473Z,30
2017-05-05T08:15:20.013Z,30
2017-05-05T08:16:18.063Z,30.1
2017-05-05T08:17:17.994Z,30.2
2017-05-05T08:18:18.001Z,30.3
2017-05-05T08:19:20.563Z,30.4
2017-05-05T08:20:19.271Z,30.5
2017-05-05T08:21:19.823Z,30.5
2017-05-05T08:22:21.217Z,30.6
2017-05-05T08:23:20.765Z,30.7
2017-05-05T08:24:19.791Z,30.8
2017-05-05T08:25:19.597Z,30.9
2017-05-05T08:26:20.029Z,30.9
2017-05-05T08:27:19.380Z,31
2017-05-05T08:28:19.171Z,30.8
2017-05-05T08:29:22.414Z,30.7
2017-05-05T08:30:18.463Z,30.6
2017-05-05T08:31:21.482Z,30.4
2017-05-05T08:32:18.631Z,30.4
2017-05-05T08:33:21.013Z,30.3
2017-05-05T08:34:19.779Z,30.3
2017-05-05T08:35:20.211Z,30.3
2017-05-05T08:36:22.282Z,30.2
2017-05-05T08:37:19.479Z,30.2
2017-05-05T08:38:20.122Z,30.2
2017-05-05T08:39:21.533Z,30.3
2017-05-05T08:40:19.729Z,30.3
2017-05-05T08:41:19.114Z,30.3
2017-05-05T08:42:20.777Z,30.2
2017-05-05T08:43:19.841Z,30.3
2017-05-05T08:44:22.194Z,30.3
2017-05-05T08:45:19.622Z,30.3
2017-05-05T08:46:21.894Z,30.4
2017-05-05T08:47:23.261Z,30.5
2017-05-05T08:48:22.618Z,30.5
2017-05-05T08:49:19.978Z,30.5
2017-05-05T08:50:20.670Z,30.5
2017-05-05T08:51:21.996Z,30.5
2017-05-05T08:52:23.068Z,30.5
2017-05-05T08:53:19.666Z,30.5
2017-05-05T08:54:21.180Z,30.4
2017-05-05T08:55:19.773Z,30.4
2017-05-05T08:56:21.410Z,30.5
2017-05-05T08:57:21.943Z,30.5
2017-05-05T08:58:21.759Z,30.5
2017-05-05T08:59:20.922Z,30.6
2017-05-05T09:00:21.732Z,30.6
2017-05-05T09:01:20.010Z,30.6
2017-05-05T09:02:21.222Z,30.6
2017-05-05T09:03:22.235Z,30.5
2017-05-05T09:04:20.185Z,30.5
2017-05-05T09:05:21.375Z,30.4
2017-05-05T09:06:21.256Z,30.4
2017-05-05T09:07:21.397Z,30.4
2017-05-05T09:08:22.123Z,30.3
2017-05-05T09:09:22.954Z,30.4
2017-05-05T09:10:22.961Z,30.4
2017-05-05T09:11:21.203Z,30.4
2017-05-05T09:12:20.608Z,30.4
2017-05-05T09:13:22.415Z,30.5
2017-05-05T09:14:21.676Z,30.6
2017-05-05T09:15:21.879Z,30.5
2017-05-05T09:16:20.821Z,30.5
2017-05-05T09:17:20.974Z,30.5
2017-05-05T09:18:22.240Z,30.6
2017-05-05T09:19:21.683Z,30.5
2017-05-05T09:20:21.327Z,30.5
2017-05-05T09:21:24.436Z,30.5
2017-05-05T09:22:24.331Z,30.5
2017-05-05T09:23:22.910Z,30.5
2017-05-05T09:24:21.341Z,30.4
2017-05-05T09:25:23.588Z,30.3
2017-05-05T09:26:22.263Z,30.3
2017-05-05T09:27:22.838Z,30.4
2017-05-05T09:28:22.350Z,30.4
2017-05-05T09:29:24.075Z,30.4
2017-05-05T09:30:21.557Z,30.4
2017-05-05T09:31:22.915Z,30.4
2017-05-05T09:32:23.970Z,30.5
2017-05-05T09:33:25.709Z,30.5
2017-05-05T09:34:22.928Z,30.5
2017-05-05T09:35:23.669Z,30.6
2017-05-05T09:36:23.045Z,30.6
2017-05-05T09:37:23.695Z,30.6
2017-05-05T09:38:22.974Z,30.7
2017-05-05T09:39:28.947Z,30.7
2017-05-05T09:40:28.345Z,30.7
2017-05-05T09:41:28.805Z,30.6
2017-05-05T09:42:32.993Z,30.5
2017-05-05T09:43:27.177Z,30.5
2017-05-05T09:44:28.984Z,30.4
2017-05-05T09:45:26.805Z,30.4
2017-05-05T09:46:28.446Z,30.3
2017-05-05T09:47:26.825Z,30.3
2017-05-05T09:48:25.300Z,30.2
2017-05-05T09:49:25.062Z,30.2
2017-05-05T09:50:25.435Z,30.2
2017-05-05T09:51:22.831Z,30.1
2017-05-05T09:52:25.248Z,30.1
2017-05-05T09:53:29.023Z,30
2017-05-05T09:54:24.191Z,30
2017-05-05T09:55:23.150Z,29.9
2017-05-05T09:56:24.298Z,29.9
2017-05-05T09:57:28.542Z,29.8
2017-05-05T09:58:26.308Z,29.7
2017-05-05T09:59:24.937Z,29.6
2017-05-05T10:00:25.099Z,29.5
2017-05-05T10:01:25.762Z,29.5
2017-05-05T10:02:24.917Z,29.4
2017-05-05T10:03:24.728Z,29.3
2017-05-05T10:04:24.240Z,29.3
2017-05-05T10:05:24.741Z,29.3
2017-05-05T10:06:26.498Z,29.2
2017-05-05T10:07:24.303Z,29.3
2017-05-05T10:08:29.017Z,29.3
2017-05-05T10:09:26.420Z,29.2
2017-05-05T10:10:29.251Z,29.2
2017-05-05T10:11:28.688Z,29.2
2017-05-05T10:12:24.960Z,29.2
2017-05-05T10:13:25.078Z,29.3
2017-05-05T10:14:25.674Z,29.3
2017-05-05T10:15:25.633Z,29.3
2017-05-05T10:16:24.595Z,29.3
2017-05-05T10:17:27.245Z,29.3
2017-05-05T10:18:27.829Z,29.3
2017-05-05T10:19:27.694Z,29.3
2017-05-05T10:20:25.115Z,29.3
2017-05-05T10:21:28.740Z,29.4
2017-05-05T10:22:28.257Z,29.4
2017-05-05T10:23:27.501Z,29.4
2017-05-05T10:24:28.857Z,29.4
2017-05-05T10:25:27.366Z,29.4
2017-05-05T10:26:29.953Z,29.4
2017-05-05T10:27:30.129Z,29.4
2017-05-05T10:28:29.081Z,29.4
2017-05-05T10:29:38.563Z,29.4
2017-05-05T10:30:34.281Z,29.4
2017-05-05T10:31:29.485Z,29.3
2017-05-05T10:32:28.572Z,29.3
2017-05-05T10:33:28.388Z,29.4
2017-05-05T10:34:29.284Z,29.5
2017-05-05T10:35:29.987Z,29.7
2017-05-05T10:36:26.843Z,29.9
2017-05-05T10:37:30.046Z,30
2017-05-05T10:38:29.972Z,30.1
2017-05-05T10:39:31.792Z,30.2
2017-05-05T10:40:27.997Z,30.3
2017-05-05T10:41:26.476Z,30.4
2017-05-05T10:42:30.917Z,30.5
2017-05-05T10:43:27.091Z,30.5
2017-05-05T10:44:27.529Z,30.6
2017-05-05T10:45:28.695Z,30.6
2017-05-05T10:46:30.019Z,30.6
2017-05-05T10:47:30.430Z,30.7
2017-05-05T10:48:28.034Z,30.7
2017-05-05T10:49:28.554Z,30.7
2017-05-05T10:50:30.837Z,30.8
2017-05-05T10:51:27.177Z,30.8
2017-05-05T10:52:30.521Z,30.8
2017-05-05T10:53:28.321Z,30.8
2017-05-05T10:54:29.368Z,30.8
2017-05-05T10:55:30.945Z,30.8
2017-05-05T10:56:30.384Z,30.9
2017-05-05T10:57:32.525Z,30.9
2017-05-05T10:58:30.118Z,30.9
2017-05-05T10:59:31.106Z,31
2017-05-05T11:00:29.308Z,31
2017-05-05T11:01:28.870Z,31
2017-05-05T11:02:26.910Z,31
2017-05-05T11:03:32.972Z,31
2017-05-05T11:04:31.462Z,31
2017-05-05T11:05:28.964Z,31
2017-05-05T11:06:29.386Z,31.1
2017-05-05T11:07:32.199Z,31.1
2017-05-05T11:08:29.672Z,31.2
2017-05-05T11:09:29.705Z,31.2
2017-05-05T11:10:29.710Z,31.2
2017-05-05T11:11:30.257Z,31.2
2017-05-05T11:12:30.653Z,31.2
2017-05-05T11:13:31.594Z,31.2
2017-05-05T11:14:28.966Z,31.2
2017-05-05T11:15:31.841Z,31.2
2017-05-05T11:16:29.620Z,31.2
2017-05-05T11:17:31.160Z,31.2
2017-05-05T11:18:30.369Z,31.2
2017-05-05T11:19:29.446Z,31.2
2017-05-05T11:20:29.573Z,31.3
2017-05-05T11:21:28.455Z,31.3
2017-05-05T11:22:29.804Z,31.3
2017-05-05T11:23:27.216Z,31.3
2017-05-05T11:24:28.524Z,31.3
2017-05-05T11:25:29.768Z,31.3
2017-05-05T11:26:32.634Z,31.3
2017-05-05T11:27:31.098Z,31.3
2017-05-05T11:28:30.768Z,31.4
2017-05-05T11:29:29.231Z,31.4
2017-05-05T11:30:28.343Z,31.4
2017-05-05T11:31:29.580Z,31.4
2017-05-05T11:32:28.807Z,31.4
2017-05-05T11:33:28.635Z,31.4
2017-05-05T11:34:30.439Z,31.4
2017-05-05T11:35:28.246Z,31.3
2017-05-05T11:36:28.625Z,31.3
2017-05-05T11:37:28.877Z,31.4
2017-05-05T11:38:29.907Z,31.4
2017-05-05T11:39:28.599Z,31.4
2017-05-05T11:40:31.588Z,31.3
2017-05-05T11:41:31.597Z,31.3
2017-05-05T11:42:29.689Z,31.3
2017-05-05T11:43:30.005Z,31.3
2017-05-05T11:44:29.511Z,31.3
2017-05-05T11:45:29.314Z,31.2
2017-05-05T11:46:31.189Z,31.2
2017-05-05T11:47:29.086Z,31.2
2017-05-05T11:48:29.338Z,31.1
2017-05-05T11:49:29.501Z,31.1
2017-05-05T11:50:30.269Z,31.1
2017-05-05T11:51:31.017Z,31
2017-05-05T11:52:30.320Z,31
2017-05-05T11:53:30.393Z,31
2017-05-05T11:54:31.876Z,31
2017-05-05T11:55:31.315Z,31
2017-05-05T11:56:29.620Z,31
2017-05-05T11:57:30.268Z,31
2017-05-05T11:58:32.252Z,31
2017-05-05T11:59:35.441Z,31
2017-05-05T12:00:33.137Z,30.9
2017-05-05T12:01:32.116Z,30.9
2017-05-05T12:02:30.708Z,30.9
2017-05-05T12:03:30.679Z,31
2017-05-05T12:04:32.020Z,30.9
2017-05-05T12:05:32.513Z,30.9
2017-05-05T12:06:45.177Z,30.9
2017-05-05T12:07:33.731Z,30.9
2017-05-05T12:08:30.312Z,30.9
2017-05-05T12:09:30.465Z,30.9
2017-05-05T12:10:30.319Z,30.9
2017-05-05T12:11:30.798Z,30.9
2017-05-05T12:12:32.656Z,30.9
2017-05-05T12:13:32.276Z,30.9
2017-05-05T12:14:36.900Z,30.8
2017-05-05T12:15:35.761Z,30.8
2017-05-05T12:16:34.486Z,30.8
2017-05-05T12:17:35.730Z,30.8
2017-05-05T12:18:43.766Z,30.8
2017-05-05T12:19:39.963Z,30.8
2017-05-05T12:20:39.816Z,30.8
2017-05-05T12:21:39.942Z,30.8
2017-05-05T12:22:41.141Z,30.8
2017-05-05T12:23:44.280Z,30.8
2017-05-05T12:24:44.299Z,30.8
2017-05-05T12:25:40.003Z,30.8
2017-05-05T12:26:36.254Z,30.8
2017-05-05T12:27:30.462Z,30.8
2017-05-05T12:28:38.429Z,30.8
2017-05-05T12:29:39.201Z,30.8
2017-05-05T12:30:37.878Z,30.8
2017-05-05T12:31:38.258Z,30.8
2017-05-05T12:32:37.070Z,30.8
2017-05-05T12:33:39.558Z,30.8
2017-05-05T12:34:38.247Z,30.8
2017-05-05T12:35:44.546Z,30.8
2017-05-05T12:36:40.378Z,30.9
2017-05-05T12:37:39.533Z,30.9
2017-05-05T12:38:32.207Z,30.9
2017-05-05T12:39:39.480Z,30.9
2017-05-05T12:40:36.371Z,30.9
2017-05-05T12:41:38.623Z,30.9
2017-05-05T12:42:39.908Z,31
2017-05-05T12:43:38.256Z,31
2017-05-05T12:44:39.722Z,31
2017-05-05T12:45:37.295Z,31
2017-05-05T12:46:35.847Z,31
2017-05-05T12:47:36.727Z,31
2017-05-05T12:48:39.457Z,31
2017-05-05T12:49:42.429Z,31
2017-05-05T12:50:35.816Z,31
2017-05-05T12:51:34.274Z,31
2017-05-05T12:52:35.375Z,31.1
2017-05-05T12:53:34.343Z,31.1
2017-05-05T12:54:33.190Z,31.1
2017-05-05T12:55:35.243Z,31.1
2017-05-05T12:56:35.924Z,31.1
2017-05-05T12:57:33.513Z,31.1
2017-05-05T12:58:31.840Z,31.1
2017-05-05T12:59:32.408Z,31.1
2017-05-05T13:00:31.775Z,31.1
2017-05-05T13:01:31.928Z,31.1
2017-05-05T13:02:34.298Z,31.2
2017-05-05T13:03:33.053Z,31.2
2017-05-05T13:04:32.088Z,31.2
2017-05-05T13:05:33.495Z,31.2
2017-05-05T13:06:33.534Z,31.2
2017-05-05T13:07:35.740Z,31.2
2017-05-05T13:08:33.285Z,31.1
2017-05-05T13:09:33.839Z,31.1
2017-05-05T13:10:34.334Z,31.1
2017-05-05T13:11:34.633Z,31.1
2017-05-05T13:12:34.097Z,31.1
2017-05-05T13:13:34.446Z,31.1
2017-05-05T13:14:36.281Z,31
2017-05-05T13:15:33.826Z,31
2017-05-05T13:16:34.847Z,30.9
2017-05-05T13:17:34.357Z,30.8
2017-05-05T13:18:34.723Z,30.8
2017-05-05T13:19:36.524Z,30.7
2017-05-05T13:20:37.944Z,30.7
2017-05-05T13:21:37.525Z,30.7
2017-05-05T13:22:34.525Z,30.7